sensor_id;sensor_type;location;lat;lon;timestamp;pressure;altitude;pressure_sealevel;temperature;humidity
46682;BME280;34101;53.430;-2.224;2023-02-19T00:01:56;44424.67;;;-148.94;100.00
46682;BME280;34101;53.430;-2.224;2023-02-19T00:04:24;44849.02;;;-148.94;100.00
46682;BME280;34101;53.430;-2.224;2023-02-19T00:06:51;44629.55;;;-148.94;100.00
46682;BME280;34101;53.430;-2.224;2023-02-19T00:09:19;44584.56;;;-148.94;100.00
46682;BME280;34101;53.430;-2.224;2023-02-19T00:11:46;44317.32;;;-148.94;100.00
46682;BME280;34101;53.430;-2.224;2023-02-19T00:14:16;44199.10;;;-148.94;100.00
46682;BME280;34101;53.430;-2.224;2023-02-19T00:16:44;44249.97;;;-148.94;100.00
46682;BME280;34101;53.430;-2.224;2023-02-19T00:19:14;44755.71;;;-148.94;100.00
46682;BME280;34101;53.430;-2.224;2023-02-19T00:21:41;44646.68;;;-148.94;100.00
46682;BME280;34101;53.430;-2.224;2023-02-19T00:24:10;44879.44;;;-148.94;100.00
46682;BME280;34101;53.430;-2.224;2023-02-19T00:26:39;44790.86;;;-148.94;100.00
46682;BME280;34101;53.430;-2.224;2023-02-19T00:29:08;44599.01;;;-148.94;100.00
46682;BME280;34101;53.430;-2.224;2023-02-19T00:31:38;44644.51;;;-148.94;100.00
46682;BME280;34101;53.430;-2.224;2023-02-19T00:34:06;44665.98;;;-148.94;100.00
46682;BME280;34101;53.430;-2.224;2023-02-19T00:36:36;44758.78;;;-148.94;100.00
46682;BME280;34101;53.430;-2.224;2023-02-19T00:39:06;44999.98;;;-148.94;100.00
46682;BME280;34101;53.430;-2.224;2023-02-19T00:41:33;45438.57;;;-148.94;100.00
46682;BME280;34101;53.430;-2.224;2023-02-19T00:44:02;45292.07;;;-148.94;100.00
46682;BME280;34101;53.430;-2.224;2023-02-19T00:46:33;45162.70;;;-148.94;100.00
46682;BME280;34101;53.430;-2.224;2023-02-19T00:49:01;45048.29;;;-148.94;100.00
46682;BME280;34101;53.430;-2.224;2023-02-19T00:51:32;44952.30;;;-148.94;100.00
46682;BME280;34101;53.430;-2.224;2023-02-19T00:54:00;44819.75;;;-148.94;100.00
46682;BME280;34101;53.430;-2.224;2023-02-19T00:56:27;44187.98;;;-148.94;100.00
46682;BME280;34101;53.430;-2.224;2023-02-19T00:58:55;43977.50;;;-148.94;100.00
46682;BME280;34101;53.430;-2.224;2023-02-19T01:01:23;44443.08;;;-148.94;100.00
46682;BME280;34101;53.430;-2.224;2023-02-19T01:03:51;44572.68;;;-148.94;100.00
46682;BME280;34101;53.430;-2.224;2023-02-19T01:06:19;43906.83;;;-148.94;100.00
46682;BME280;34101;53.430;-2.224;2023-02-19T01:08:46;43388.42;;;-148.94;100.00
46682;BME280;34101;53.430;-2.224;2023-02-19T01:11:15;43083.31;;;-148.94;100.00
46682;BME280;34101;53.430;-2.224;2023-02-19T01:13:42;42924.76;;;-148.94;100.00
46682;BME280;34101;53.430;-2.224;2023-02-19T01:16:13;43344.21;;;-148.94;100.00
46682;BME280;34101;53.430;-2.224;2023-02-19T01:18:42;43729.85;;;-148.94;100.00
46682;BME280;34101;53.430;-2.224;2023-02-19T01:21:12;43616.76;;;-148.94;100.00
46682;BME280;34101;53.430;-2.224;2023-02-19T01:23:40;43641.30;;;-148.94;100.00
46682;BME280;34101;53.430;-2.224;2023-02-19T01:26:10;44260.70;;;-148.94;100.00
46682;BME280;34101;53.430;-2.224;2023-02-19T01:28:38;44550.44;;;-148.94;100.00
46682;BME280;34101;53.430;-2.224;2023-02-19T01:31:07;44733.21;;;-148.94;100.00
46682;BME280;34101;53.430;-2.224;2023-02-19T01:33:35;45682.88;;;-148.94;100.00
46682;BME280;34101;53.430;-2.224;2023-02-19T01:36:02;46376.77;;;-148.94;100.00
46682;BME280;34101;53.430;-2.224;2023-02-19T01:38:30;46193.92;;;-148.94;100.00
46682;BME280;34101;53.430;-2.224;2023-02-19T01:40:58;46538.91;;;-148.94;100.00
46682;BME280;34101;53.430;-2.224;2023-02-19T01:43:26;46389.05;;;-148.94;100.00
46682;BME280;34101;53.430;-2.224;2023-02-19T01:45:54;45984.10;;;-148.94;100.00
46682;BME280;34101;53.430;-2.224;2023-02-19T01:48:24;45843.08;;;-148.94;100.00
46682;BME280;34101;53.430;-2.224;2023-02-19T01:50:55;46084.60;;;-148.94;100.00
46682;BME280;34101;53.430;-2.224;2023-02-19T01:53:27;45587.51;;;-148.94;100.00
46682;BME280;34101;53.430;-2.224;2023-02-19T01:55:58;45580.09;;;-148.94;100.00
46682;BME280;34101;53.430;-2.224;2023-02-19T01:58:30;45505.94;;;-148.94;100.00
46682;BME280;34101;53.430;-2.224;2023-02-19T02:01:03;45375.67;;;-148.94;100.00
46682;BME280;34101;53.430;-2.224;2023-02-19T02:03:32;45448.93;;;-148.94;100.00
46682;BME280;34101;53.430;-2.224;2023-02-19T02:06:03;45504.79;;;-148.94;100.00
46682;BME280;34101;53.430;-2.224;2023-02-19T02:08:33;45789.25;;;-148.94;100.00
46682;BME280;34101;53.430;-2.224;2023-02-19T02:11:01;46134.46;;;-148.94;100.00
46682;BME280;34101;53.430;-2.224;2023-02-19T02:13:29;46459.50;;;-148.94;100.00
46682;BME280;34101;53.430;-2.224;2023-02-19T02:16:06;46271.41;;;-148.94;100.00
46682;BME280;34101;53.430;-2.224;2023-02-19T02:18:45;46369.61;;;-148.94;100.00
46682;BME280;34101;53.430;-2.224;2023-02-19T02:21:34;46604.51;;;-148.94;100.00
46682;BME280;34101;53.430;-2.224;2023-02-19T02:24:14;46734.70;;;-148.94;100.00
46682;BME280;34101;53.430;-2.224;2023-02-19T02:26:58;47139.85;;;-148.94;100.00
46682;BME280;34101;53.430;-2.224;2023-02-19T02:30:43;47353.69;;;-148.94;100.00
46682;BME280;34101;53.430;-2.224;2023-02-19T02:33:20;47840.26;;;-148.94;100.00
46682;BME280;34101;53.430;-2.224;2023-02-19T02:35:53;48136.15;;;-148.94;100.00
46682;BME280;34101;53.430;-2.224;2023-02-19T02:38:25;48280.58;;;-148.94;100.00
46682;BME280;34101;53.430;-2.224;2023-02-19T02:40:54;48316.91;;;-148.94;100.00
46682;BME280;34101;53.430;-2.224;2023-02-19T02:43:23;48592.62;;;-148.94;100.00
46682;BME280;34101;53.430;-2.224;2023-02-19T02:45:51;48655.18;;;-148.94;100.00
46682;BME280;34101;53.430;-2.224;2023-02-19T02:48:26;48547.71;;;-148.94;100.00
46682;BME280;34101;53.430;-2.224;2023-02-19T02:50:57;48404.04;;;-148.94;100.00
46682;BME280;34101;53.430;-2.224;2023-02-19T02:53:29;48624.09;;;-148.94;100.00
46682;BME280;34101;53.430;-2.224;2023-02-19T02:55:58;48659.53;;;-148.94;100.00
46682;BME280;34101;53.430;-2.224;2023-02-19T02:58:27;48431.41;;;-148.94;100.00
46682;BME280;34101;53.430;-2.224;2023-02-19T03:02:46;48310.90;;;-148.94;100.00
46682;BME280;34101;53.430;-2.224;2023-02-19T03:05:16;48783.90;;;-148.94;100.00
46682;BME280;34101;53.430;-2.224;2023-02-19T03:07:51;48785.69;;;-148.94;100.00
46682;BME280;34101;53.430;-2.224;2023-02-19T03:11:12;48921.83;;;-148.94;100.00
46682;BME280;34101;53.430;-2.224;2023-02-19T03:13:39;49135.13;;;-148.94;100.00
46682;BME280;34101;53.430;-2.224;2023-02-19T03:16:11;48996.17;;;-148.94;100.00
46682;BME280;34101;53.430;-2.224;2023-02-19T03:19:08;49437.13;;;-148.94;100.00
46682;BME280;34101;53.430;-2.224;2023-02-19T03:21:42;49733.26;;;-148.94;100.00
46682;BME280;34101;53.430;-2.224;2023-02-19T03:24:12;49777.03;;;-148.94;100.00
46682;BME280;34101;53.430;-2.224;2023-02-19T03:28:46;49508.02;;;-148.94;100.00
46682;BME280;34101;53.430;-2.224;2023-02-19T03:31:17;49841.02;;;-148.94;100.00
46682;BME280;34101;53.430;-2.224;2023-02-19T03:33:50;50043.88;;;-148.94;100.00
46682;BME280;34101;53.430;-2.224;2023-02-19T03:36:24;50065.89;;;-148.94;100.00
46682;BME280;34101;53.430;-2.224;2023-02-19T03:38:57;50201.43;;;-148.94;100.00
46682;BME280;34101;53.430;-2.224;2023-02-19T03:41:32;50364.89;;;-148.94;100.00
46682;BME280;34101;53.430;-2.224;2023-02-19T03:44:08;50343.77;;;-148.94;100.00
46682;BME280;34101;53.430;-2.224;2023-02-19T03:46:43;50315.99;;;-148.94;100.00
46682;BME280;34101;53.430;-2.224;2023-02-19T03:49:23;50098.02;;;-148.94;100.00
46682;BME280;34101;53.430;-2.224;2023-02-19T03:51:59;49859.96;;;-148.94;100.00
46682;BME280;34101;53.430;-2.224;2023-02-19T03:54:34;50157.66;;;-148.94;100.00
46682;BME280;34101;53.430;-2.224;2023-02-19T03:57:06;50257.24;;;-148.94;100.00
46682;BME280;34101;53.430;-2.224;2023-02-19T03:59:42;50277.21;;;-148.94;100.00
46682;BME280;34101;53.430;-2.224;2023-02-19T04:02:14;50099.42;;;-148.94;100.00
46682;BME280;34101;53.430;-2.224;2023-02-19T04:04:48;49831.42;;;-148.94;100.00
46682;BME280;34101;53.430;-2.224;2023-02-19T04:07:16;49831.04;;;-148.94;100.00
46682;BME280;34101;53.430;-2.224;2023-02-19T04:09:47;49863.29;;;-148.94;100.00
46682;BME280;34101;53.430;-2.224;2023-02-19T04:12:17;49870.33;;;-148.94;100.00
46682;BME280;34101;53.430;-2.224;2023-02-19T04:14:49;49857.14;;;-148.94;100.00
46682;BME280;34101;53.430;-2.224;2023-02-19T04:17:20;49842.94;;;-148.94;100.00
46682;BME280;34101;53.430;-2.224;2023-02-19T04:19:50;49844.22;;;-148.94;100.00
46682;BME280;34101;53.430;-2.224;2023-02-19T04:22:19;50084.32;;;-148.94;100.00
46682;BME280;34101;53.430;-2.224;2023-02-19T04:24:49;50178.52;;;-148.94;100.00
46682;BME280;34101;53.430;-2.224;2023-02-19T04:27:18;50259.16;;;-148.94;100.00
46682;BME280;34101;53.430;-2.224;2023-02-19T04:29:45;50324.44;;;-148.94;100.00
46682;BME280;34101;53.430;-2.224;2023-02-19T04:32:13;50283.09;;;-148.94;100.00
46682;BME280;34101;53.430;-2.224;2023-02-19T04:34:40;50446.42;;;-148.94;100.00
46682;BME280;34101;53.430;-2.224;2023-02-19T04:37:07;50279.26;;;-148.94;100.00
46682;BME280;34101;53.430;-2.224;2023-02-19T04:39:34;50743.40;;;-148.94;100.00
46682;BME280;34101;53.430;-2.224;2023-02-19T04:42:02;50732.26;;;-148.94;100.00
46682;BME280;34101;53.430;-2.224;2023-02-19T04:44:29;50719.33;;;-148.94;100.00
46682;BME280;34101;53.430;-2.224;2023-02-19T04:46:57;50600.54;;;-148.94;100.00
46682;BME280;34101;53.430;-2.224;2023-02-19T04:49:24;50479.83;;;-148.94;100.00
46682;BME280;34101;53.430;-2.224;2023-02-19T04:51:52;50462.42;;;-148.94;100.00
46682;BME280;34101;53.430;-2.224;2023-02-19T04:54:19;50366.04;;;-148.94;100.00
46682;BME280;34101;53.430;-2.224;2023-02-19T04:56:46;50358.10;;;-148.94;100.00
46682;BME280;34101;53.430;-2.224;2023-02-19T04:59:14;50569.31;;;-148.94;100.00
46682;BME280;34101;53.430;-2.224;2023-02-19T05:01:41;50928.64;;;-148.94;100.00
46682;BME280;34101;53.430;-2.224;2023-02-19T05:04:09;50962.30;;;-148.94;100.00
46682;BME280;34101;53.430;-2.224;2023-02-19T05:06:36;50889.33;;;-148.94;100.00
46682;BME280;34101;53.430;-2.224;2023-02-19T05:09:03;50882.29;;;-148.94;100.00
46682;BME280;34101;53.430;-2.224;2023-02-19T05:11:31;50617.31;;;-148.94;100.00
46682;BME280;34101;53.430;-2.224;2023-02-19T05:13:58;50350.29;;;-148.94;100.00
46682;BME280;34101;53.430;-2.224;2023-02-19T05:16:26;50193.50;;;-148.94;100.00
46682;BME280;34101;53.430;-2.224;2023-02-19T05:18:54;50453.97;;;-148.94;100.00
46682;BME280;34101;53.430;-2.224;2023-02-19T05:21:21;50209.63;;;-148.94;100.00
46682;BME280;34101;53.430;-2.224;2023-02-19T05:23:49;50022.25;;;-148.94;100.00
46682;BME280;34101;53.430;-2.224;2023-02-19T05:26:19;49844.22;;;-148.94;100.00
46682;BME280;34101;53.430;-2.224;2023-02-19T05:28:49;49855.74;;;-148.94;100.00
46682;BME280;34101;53.430;-2.224;2023-02-19T05:31:17;49773.44;;;-148.94;100.00
46682;BME280;34101;53.430;-2.224;2023-02-19T05:33:45;49536.56;;;-148.94;100.00
46682;BME280;34101;53.430;-2.224;2023-02-19T05:36:13;49533.87;;;-148.94;100.00
46682;BME280;34101;53.430;-2.224;2023-02-19T05:38:40;49569.83;;;-148.94;100.00
46682;BME280;34101;53.430;-2.224;2023-02-19T05:41:09;49612.70;;;-148.94;100.00
46682;BME280;34101;53.430;-2.224;2023-02-19T05:43:36;50021.35;;;-148.94;100.00
46682;BME280;34101;53.430;-2.224;2023-02-19T05:46:04;50011.88;;;-148.94;100.00
46682;BME280;34101;53.430;-2.224;2023-02-19T05:48:31;49716.37;;;-148.94;100.00
46682;BME280;34101;53.430;-2.224;2023-02-19T05:51:01;49720.59;;;-148.94;100.00
46682;BME280;34101;53.430;-2.224;2023-02-19T05:53:29;49972.97;;;-148.94;100.00
46682;BME280;34101;53.430;-2.224;2023-02-19T05:55:56;49924.21;;;-148.94;100.00
46682;BME280;34101;53.430;-2.224;2023-02-19T05:58:24;49811.45;;;-148.94;100.00
46682;BME280;34101;53.430;-2.224;2023-02-19T06:00:51;49501.62;;;-148.94;100.00
46682;BME280;34101;53.430;-2.224;2023-02-19T06:03:19;49198.34;;;-148.94;100.00
46682;BME280;34101;53.430;-2.224;2023-02-19T06:05:47;49199.88;;;-148.94;100.00
46682;BME280;34101;53.430;-2.224;2023-02-19T06:08:15;49490.87;;;-148.94;100.00
46682;BME280;34101;53.430;-2.224;2023-02-19T06:10:42;49494.07;;;-148.94;100.00
46682;BME280;34101;53.430;-2.224;2023-02-19T06:13:10;49503.67;;;-148.94;100.00
46682;BME280;34101;53.430;-2.224;2023-02-19T06:15:37;49632.92;;;-148.94;100.00
46682;BME280;34101;53.430;-2.224;2023-02-19T06:18:04;49756.55;;;-148.94;100.00
46682;BME280;34101;53.430;-2.224;2023-02-19T06:20:32;49569.45;;;-148.94;100.00
46682;BME280;34101;53.430;-2.224;2023-02-19T06:22:59;49369.94;;;-148.94;100.00
46682;BME280;34101;53.430;-2.224;2023-02-19T06:25:27;49263.48;;;-148.94;100.00
46682;BME280;34101;53.430;-2.224;2023-02-19T06:27:54;49277.17;;;-148.94;100.00
46682;BME280;34101;53.430;-2.224;2023-02-19T06:30:22;49575.59;;;-148.94;100.00
46682;BME280;34101;53.430;-2.224;2023-02-19T06:32:51;49511.48;;;-148.94;100.00
46682;BME280;34101;53.430;-2.224;2023-02-19T06:35:19;49994.22;;;-148.94;100.00
46682;BME280;34101;53.430;-2.224;2023-02-19T06:37:46;49906.29;;;-148.94;100.00
46682;BME280;34101;53.430;-2.224;2023-02-19T06:40:14;50096.99;;;-148.94;100.00
46682;BME280;34101;53.430;-2.224;2023-02-19T06:42:41;49825.92;;;-148.94;100.00
46682;BME280;34101;53.430;-2.224;2023-02-19T06:45:08;49607.46;;;-148.94;100.00
46682;BME280;34101;53.430;-2.224;2023-02-19T06:47:35;49334.11;;;-148.94;100.00
46682;BME280;34101;53.430;-2.224;2023-02-19T06:50:03;49202.05;;;-148.94;100.00
46682;BME280;34101;53.430;-2.224;2023-02-19T06:52:30;49672.09;;;-148.94;100.00
46682;BME280;34101;53.430;-2.224;2023-02-19T06:54:57;49777.03;;;-148.94;100.00
46682;BME280;34101;53.430;-2.224;2023-02-19T06:57:26;50317.27;;;-148.94;100.00
46682;BME280;34101;53.430;-2.224;2023-02-19T06:59:53;50693.60;;;-148.94;100.00
46682;BME280;34101;53.430;-2.224;2023-02-19T07:02:21;51084.56;;;-148.94;100.00
46682;BME280;34101;53.430;-2.224;2023-02-19T07:04:48;51349.96;;;-148.94;100.00
46682;BME280;34101;53.430;-2.224;2023-02-19T07:07:15;51579.53;;;-148.94;100.00
46682;BME280;34101;53.430;-2.224;2023-02-19T07:09:43;51518.20;;;-148.94;100.00
46682;BME280;34101;53.430;-2.224;2023-02-19T07:12:10;51644.19;;;-148.94;100.00
46682;BME280;34101;53.430;-2.224;2023-02-19T07:14:38;51808.34;;;-148.94;100.00
46682;BME280;34101;53.430;-2.224;2023-02-19T07:17:05;51636.77;;;-148.94;100.00
46682;BME280;34101;53.430;-2.224;2023-02-19T07:19:33;51585.81;;;-148.94;100.00
46682;BME280;34101;53.430;-2.224;2023-02-19T07:22:00;51716.66;;;-148.94;100.00
46682;BME280;34101;53.430;-2.224;2023-02-19T07:24:27;51881.97;;;-148.94;100.00
46682;BME280;34101;53.430;-2.224;2023-02-19T07:26:55;52133.08;;;-148.94;100.00
46682;BME280;34101;53.430;-2.224;2023-02-19T07:29:22;52536.35;;;-148.94;100.00
46682;BME280;34101;53.430;-2.224;2023-02-19T07:31:50;52195.83;;;-148.94;100.00
46682;BME280;34101;53.430;-2.224;2023-02-19T07:34:17;52049.85;;;-148.94;100.00
46682;BME280;34101;53.430;-2.224;2023-02-19T07:36:45;51728.06;;;-148.94;100.00
46682;BME280;34101;53.430;-2.224;2023-02-19T07:39:12;51479.02;;;-148.94;100.00
46682;BME280;34101;53.430;-2.224;2023-02-19T07:41:40;51209.39;;;-148.94;100.00
46682;BME280;34101;53.430;-2.224;2023-02-19T07:44:07;50960.13;;;-148.94;100.00
46682;BME280;34101;53.430;-2.224;2023-02-19T07:46:34;50755.56;;;-148.94;100.00
46682;BME280;34101;53.430;-2.224;2023-02-19T07:49:02;50658.53;;;-148.94;100.00
46682;BME280;34101;53.430;-2.224;2023-02-19T07:51:29;50408.66;;;-148.94;100.00
46682;BME280;34101;53.430;-2.224;2023-02-19T07:53:56;50366.42;;;-148.94;100.00
46682;BME280;34101;53.430;-2.224;2023-02-19T07:56:24;50266.84;;;-148.94;100.00
46682;BME280;34101;53.430;-2.224;2023-02-19T07:58:51;49862.39;;;-148.94;100.00
46682;BME280;34101;53.430;-2.224;2023-02-19T08:01:21;49706.90;;;-148.94;100.00
46682;BME280;34101;53.430;-2.224;2023-02-19T08:03:48;49652.38;;;-148.94;100.00
46682;BME280;34101;53.430;-2.224;2023-02-19T08:06:15;49866.87;;;-148.94;100.00
46682;BME280;34101;53.430;-2.224;2023-02-19T08:08:43;49886.71;;;-148.94;100.00
46682;BME280;34101;53.430;-2.224;2023-02-19T08:11:11;49774.60;;;-148.94;100.00
46682;BME280;34101;53.430;-2.224;2023-02-19T08:13:37;49733.64;;;-148.94;100.00
46682;BME280;34101;53.430;-2.224;2023-02-19T08:16:11;49354.20;;;-148.94;100.00
46682;BME280;34101;53.430;-2.224;2023-02-19T08:18:38;49048.12;;;-148.94;100.00
46682;BME280;34101;53.430;-2.224;2023-02-19T08:21:06;48664.65;;;-148.94;100.00
46682;BME280;34101;53.430;-2.224;2023-02-19T08:23:33;48429.11;;;-148.94;100.00
46682;BME280;34101;53.430;-2.224;2023-02-19T08:26:01;48352.22;;;-148.94;100.00
46682;BME280;34101;53.430;-2.224;2023-02-19T08:28:29;48283.78;;;-148.94;100.00
46682;BME280;34101;53.430;-2.224;2023-02-19T08:30:59;48261.01;;;-148.94;100.00
46682;BME280;34101;53.430;-2.224;2023-02-19T08:33:28;48207.02;;;-148.94;100.00
46682;BME280;34101;53.430;-2.224;2023-02-19T08:35:55;48356.19;;;-148.94;100.00
46682;BME280;34101;53.430;-2.224;2023-02-19T08:38:23;48285.57;;;-148.94;100.00
46682;BME280;34101;53.430;-2.224;2023-02-19T08:40:50;47710.43;;;-148.94;100.00
46682;BME280;34101;53.430;-2.224;2023-02-19T08:43:18;47034.59;;;-148.94;100.00
46682;BME280;34101;53.430;-2.224;2023-02-19T08:45:45;45116.17;;;-148.94;100.00
46682;BME280;34101;53.430;-2.224;2023-02-19T08:48:13;43780.07;;;-148.94;100.00
46682;BME280;34101;53.430;-2.224;2023-02-19T08:50:40;42783.21;;;-148.94;100.00
46682;BME280;34101;53.430;-2.224;2023-02-19T08:53:08;42640.25;;;-148.94;100.00
46682;BME280;34101;53.430;-2.224;2023-02-19T08:55:36;42948.52;;;-148.94;100.00
46682;BME280;34101;53.430;-2.224;2023-02-19T08:58:04;43870.54;;;-148.94;100.00
46682;BME280;34101;53.430;-2.224;2023-02-19T09:00:31;44304.54;;;-148.94;100.00
46682;BME280;34101;53.430;-2.224;2023-02-19T09:02:59;44798.66;;;-148.94;100.00
46682;BME280;34101;53.430;-2.224;2023-02-19T09:05:27;45323.26;;;-148.94;100.00
46682;BME280;34101;53.430;-2.224;2023-02-19T09:07:55;46127.56;;;-148.94;100.00
46682;BME280;34101;53.430;-2.224;2023-02-19T09:10:23;46409.38;;;-148.94;100.00
46682;BME280;34101;53.430;-2.224;2023-02-19T09:12:50;46148.40;;;-148.94;100.00
46682;BME280;34101;53.430;-2.224;2023-02-19T09:15:17;46156.71;;;-148.94;100.00
46682;BME280;34101;53.430;-2.224;2023-02-19T09:17:50;46643.65;;;-148.94;100.00
46682;BME280;34101;53.430;-2.224;2023-02-19T09:20:17;46101.60;;;-148.94;100.00
46682;BME280;34101;53.430;-2.224;2023-02-19T09:22:44;45562.45;;;-148.94;100.00
46682;BME280;34101;53.430;-2.224;2023-02-19T09:25:12;43716.94;;;-148.94;100.00
46682;BME280;34101;53.430;-2.224;2023-02-19T09:27:39;42537.80;;;-148.94;100.00
46682;BME280;34101;53.430;-2.224;2023-02-19T09:30:07;42758.42;;;-148.94;100.00
46682;BME280;34101;53.430;-2.224;2023-02-19T09:32:35;42984.68;;;-148.94;100.00
46682;BME280;34101;53.430;-2.224;2023-02-19T09:35:02;43801.66;;;-148.94;100.00
46682;BME280;34101;53.430;-2.224;2023-02-19T09:37:29;43720.39;;;-148.94;100.00
46682;BME280;34101;53.430;-2.224;2023-02-19T09:39:57;43912.71;;;-148.94;100.00
46682;BME280;34101;53.430;-2.224;2023-02-19T09:42:27;44136.86;;;-148.94;100.00
46682;BME280;34101;53.430;-2.224;2023-02-19T09:44:57;44542.64;;;-148.94;100.00
46682;BME280;34101;53.430;-2.224;2023-02-19T09:47:27;44706.12;;;-148.94;100.00
46682;BME280;34101;53.430;-2.224;2023-02-19T09:49:57;44266.20;;;-148.94;100.00
46682;BME280;34101;53.430;-2.224;2023-02-19T09:52:31;43471.60;;;-148.94;100.00
46682;BME280;34101;53.430;-2.224;2023-02-19T09:55:12;42621.98;;;-148.94;100.00
46682;BME280;34101;53.430;-2.224;2023-02-19T09:57:40;42322.55;;;-148.94;100.00
46682;BME280;34101;53.430;-2.224;2023-02-19T10:00:20;42040.64;;;-148.94;100.00
46682;BME280;34101;53.430;-2.224;2023-02-19T10:02:50;42043.20;;;-148.94;100.00
46682;BME280;34101;53.430;-2.224;2023-02-19T10:05:18;42909.43;;;-148.94;100.00
46682;BME280;34101;53.430;-2.224;2023-02-19T10:07:50;43847.16;;;-148.94;100.00
46682;BME280;34101;53.430;-2.224;2023-02-19T10:10:26;44532.80;;;-148.94;100.00
46682;BME280;34101;53.430;-2.224;2023-02-19T10:12:58;45776.08;;;-148.94;100.00
46682;BME280;34101;53.430;-2.224;2023-02-19T10:15:32;45745.40;;;-148.94;100.00
46682;BME280;34101;53.430;-2.224;2023-02-19T10:18:02;45515.40;;;-148.94;100.00
46682;BME280;34101;53.430;-2.224;2023-02-19T10:20:30;45116.55;;;-148.94;100.00
46682;BME280;34101;53.430;-2.224;2023-02-19T10:23:01;43367.60;;;-148.94;100.00
46682;BME280;34101;53.430;-2.224;2023-02-19T10:25:30;42400.35;;;-148.94;100.00
46682;BME280;34101;53.430;-2.224;2023-02-19T10:27:58;41530.91;;;-148.94;100.00
46682;BME280;34101;53.430;-2.224;2023-02-19T10:30:29;41187.76;;;-148.94;100.00
46682;BME280;34101;53.430;-2.224;2023-02-19T10:32:59;41549.55;;;-148.94;100.00
46682;BME280;34101;53.430;-2.224;2023-02-19T10:35:27;41692.34;;;-148.94;100.00
46682;BME280;34101;53.430;-2.224;2023-02-19T10:37:56;42402.39;;;-148.94;100.00
46682;BME280;34101;53.430;-2.224;2023-02-19T10:40:25;43158.31;;;-148.94;100.00
46682;BME280;34101;53.430;-2.224;2023-02-19T10:42:56;43548.14;;;-148.94;100.00
46682;BME280;34101;53.430;-2.224;2023-02-19T10:45:29;43558.37;;;-148.94;100.00
46682;BME280;34101;53.430;-2.224;2023-02-19T10:47:58;43082.42;;;-148.94;100.00
46682;BME280;34101;53.430;-2.224;2023-02-19T10:50:30;43351.37;;;-148.94;100.00
46682;BME280;34101;53.430;-2.224;2023-02-19T10:52:58;43811.38;;;-148.94;100.00
46682;BME280;34101;53.430;-2.224;2023-02-19T10:55:29;43847.16;;;-148.94;100.00
46682;BME280;34101;53.430;-2.224;2023-02-19T10:58:19;43586.73;;;-148.94;100.00
46682;BME280;34101;53.430;-2.224;2023-02-19T11:00:47;43611.39;;;-148.94;100.00
46682;BME280;34101;53.430;-2.224;2023-02-19T11:03:34;43831.44;;;-148.94;100.00
46682;BME280;34101;53.430;-2.224;2023-02-19T11:06:04;44403.33;;;-148.94;100.00
46682;BME280;34101;53.430;-2.224;2023-02-19T11:08:44;44709.18;;;-148.94;100.00
46682;BME280;34101;53.430;-2.224;2023-02-19T11:11:23;45066.96;;;-148.94;100.00
46682;BME280;34101;53.430;-2.224;2023-02-19T11:13:53;44992.18;;;-148.94;100.00
46682;BME280;34101;53.430;-2.224;2023-02-19T11:16:22;45077.82;;;-148.94;100.00
46682;BME280;34101;53.430;-2.224;2023-02-19T11:18:55;45147.23;;;-148.94;100.00
46682;BME280;34101;53.430;-2.224;2023-02-19T11:21:25;45214.09;;;-148.94;100.00
46682;BME280;34101;53.430;-2.224;2023-02-19T11:23:54;44499.70;;;-148.94;100.00
46682;BME280;34101;53.430;-2.224;2023-02-19T11:26:23;43188.97;;;-148.94;100.00
46682;BME280;34101;53.430;-2.224;2023-02-19T11:28:55;42220.49;;;-148.94;100.00
46682;BME280;34101;53.430;-2.224;2023-02-19T11:31:24;42254.21;;;-148.94;100.00
46682;BME280;34101;53.430;-2.224;2023-02-19T11:33:55;42840.95;;;-148.94;100.00
46682;BME280;34101;53.430;-2.224;2023-02-19T11:36:28;43674.01;;;-148.94;100.00
46682;BME280;34101;53.430;-2.224;2023-02-19T11:39:11;43876.80;;;-148.94;100.00
46682;BME280;34101;53.430;-2.224;2023-02-19T11:42:01;43846.52;;;-148.94;100.00
46682;BME280;34101;53.430;-2.224;2023-02-19T11:44:44;43940.44;;;-148.94;100.00
46682;BME280;34101;53.430;-2.224;2023-02-19T11:47:37;44232.59;;;-148.94;100.00
46682;BME280;34101;53.430;-2.224;2023-02-19T11:50:16;43772.02;;;-148.94;100.00
46682;BME280;34101;53.430;-2.224;2023-02-19T11:52:55;43069.51;;;-148.94;100.00
46682;BME280;34101;53.430;-2.224;2023-02-19T11:55:38;42369.56;;;-148.94;100.00
46682;BME280;34101;53.430;-2.224;2023-02-19T11:58:28;41669.61;;;-148.94;100.00
46682;BME280;34101;53.430;-2.224;2023-02-19T12:01:06;40675.19;;;-148.94;100.00
46682;BME280;34101;53.430;-2.224;2023-02-19T12:03:54;38095.90;;;-148.94;100.00
46682;BME280;34101;53.430;-2.224;2023-02-19T12:06:30;37354.99;;;-148.94;100.00
46682;BME280;34101;53.430;-2.224;2023-02-19T12:09:18;35425.09;;;-148.94;100.00
46682;BME280;34101;53.430;-2.224;2023-02-19T12:12:03;34442.07;;;-148.94;100.00
46682;BME280;34101;53.430;-2.224;2023-02-19T12:14:51;34207.76;;;-148.94;100.00
46682;BME280;34101;53.430;-2.224;2023-02-19T12:17:41;33843.45;;;-148.94;100.00
46682;BME280;34101;53.430;-2.224;2023-02-19T12:20:21;34258.88;;;-148.94;100.00
46682;BME280;34101;53.430;-2.224;2023-02-19T12:23:03;34190.17;;;-148.94;100.00
46682;BME280;34101;53.430;-2.224;2023-02-19T12:25:46;35115.75;;;-148.94;100.00
46682;BME280;34101;53.430;-2.224;2023-02-19T12:28:25;35944.74;;;-148.94;100.00
46682;BME280;34101;53.430;-2.224;2023-02-19T12:31:07;36126.35;;;-148.94;100.00
46682;BME280;34101;53.430;-2.224;2023-02-19T12:33:55;37517.40;;;-148.94;100.00
46682;BME280;34101;53.430;-2.224;2023-02-19T12:36:35;37080.71;;;-148.94;100.00
46682;BME280;34101;53.430;-2.224;2023-02-19T12:39:14;34841.37;;;-148.94;100.00
46682;BME280;34101;53.430;-2.224;2023-02-19T12:41:48;33541.50;;;-148.94;100.00
46682;BME280;34101;53.430;-2.224;2023-02-19T12:44:23;34275.07;;;-148.94;100.00